Time;durP1;ratioP1;P1;durP2;ratioP2;P2;SDS_P1;SDS_P2;PMS_P1;PMS_P2;Temp;Humidity;BMP_temperature;BMP_pressure;BME280_temperature;BME280_humidity;BME280_pressure;Samples;Min_cycle;Max_cycle;Signal;HPM_P1;HPM_P2
2022/11/21 00:02:59;;;;;;;11.23;4.55;;;;;;;-0.12;100.00;100220.41;6200333;28;20049;-71
2022/11/21 00:06:03;;;;;;;13.18;6.63;;;;;;;-0.14;100.00;100223.88;6200646;28;20053;-72
2022/11/21 00:09:04;;;;;;;10.50;4.85;;;;;;;-0.11;100.00;100221.25;6200835;28;20414;-71
2022/11/21 00:12:07;;;;;;;13.27;6.18;;;;;;;-0.25;100.00;100216.34;6200712;28;20058;-71
2022/11/21 00:15:09;;;;;;;10.27;5.82;;;;;;;-0.22;100.00;100215.44;6200351;28;20054;-71
2022/11/21 00:18:11;;;;;;;12.63;6.00;;;;;;;-0.27;100.00;100212.94;6201029;28;20505;-72
2022/11/21 00:21:14;;;;;;;11.07;5.88;;;;;;;-0.22;100.00;100221.47;6200265;28;20054;-71
2022/11/21 00:24:16;;;;;;;12.05;6.05;;;;;;;-0.23;100.00;100221.47;6200449;28;20050;-71
2022/11/21 00:27:19;;;;;;;11.38;6.03;;;;;;;-0.28;100.00;100216.38;6200423;28;20434;-71
2022/11/21 00:30:21;;;;;;;11.65;7.15;;;;;;;-0.22;100.00;100210.28;6200279;28;20058;-71
2022/11/21 00:33:23;;;;;;;13.93;5.88;;;;;;;-0.21;100.00;100212.81;6200573;28;20047;-71
2022/11/21 00:36:24;;;;;;;13.57;5.55;;;;;;;-0.22;100.00;100210.28;6200047;28;20081;-71
2022/11/21 00:39:26;;;;;;;14.02;6.75;;;;;;;-0.22;100.00;100218.88;6200590;28;20050;-71
2022/11/21 00:42:29;;;;;;;13.20;6.50;;;;;;;-0.21;100.00;100211.97;6199985;28;20047;-71
2022/11/21 00:45:30;;;;;;;15.55;7.45;;;;;;;-0.20;100.00;100204.19;6199764;28;20403;-71
2022/11/21 00:48:32;;;;;;;13.45;7.00;;;;;;;-0.28;100.00;100195.72;6200005;28;20050;-71
2022/11/21 00:51:34;;;;;;;14.25;6.68;;;;;;;-0.32;100.00;100201.81;6199884;28;20046;-71
2022/11/21 00:54:35;;;;;;;13.60;6.28;;;;;;;-0.35;100.00;100209.63;6199403;28;20061;-71
2022/11/21 00:57:38;;;;;;;13.02;5.57;;;;;;;-0.39;100.00;100195.94;6200112;28;20058;-72
2022/11/21 01:00:39;;;;;;;12.10;6.57;;;;;;;-0.41;100.00;100197.69;6199337;28;20055;-71
2022/11/21 01:03:42;;;;;;;12.60;5.88;;;;;;;-0.45;100.00;100203.78;6199797;28;20055;-71
2022/11/21 01:06:43;;;;;;;15.90;8.10;;;;;;;-0.45;100.00;100198.63;6199563;28;20065;-71
2022/11/21 01:09:44;;;;;;;15.13;6.63;;;;;;;-0.48;100.00;100202.97;6199574;28;20517;-71
2022/11/21 01:12:47;;;;;;;10.65;6.00;;;;;;;-0.55;100.00;100200.47;6199314;28;20414;-71
2022/11/21 01:15:48;;;;;;;13.55;6.47;;;;;;;-0.61;100.00;100203.19;6199269;28;20054;-71
2022/11/21 01:18:51;;;;;;;17.10;6.20;;;;;;;-0.65;100.00;100206.69;6199494;28;20050;-72
2022/11/21 01:21:52;;;;;;;15.15;6.47;;;;;;;-0.64;100.00;100205.78;6198851;28;20042;-71
2022/11/21 01:24:53;;;;;;;14.50;6.35;;;;;;;-0.65;100.00;100213.56;6198669;28;20418;-71
2022/11/21 01:27:56;;;;;;;12.63;6.18;;;;;;;-0.71;100.00;100211.94;6199094;28;20057;-71
2022/11/21 01:31:03;;;;;;;16.30;6.30;;;;;;;-0.71;100.00;100201.63;6198947;28;20050;-71
2022/11/21 01:34:04;;;;;;;11.90;4.75;;;;;;;-0.76;100.00;100206.00;6198593;28;20050;-72
2022/11/21 01:37:06;;;;;;;17.15;6.22;;;;;;;-0.76;100.00;100208.59;6199345;28;20061;-71
2022/11/21 01:40:08;;;;;;;11.25;6.20;;;;;;;-0.82;100.00;100211.25;6198457;28;20050;-71
2022/11/21 01:43:14;;;;;;;20.02;6.60;;;;;;;-0.81;100.00;100210.41;6199109;28;20042;-71
2022/11/21 01:46:17;;;;;;;9.70;4.50;;;;;;;-0.85;100.00;100212.16;6198141;28;20506;-71
2022/11/21 01:49:21;;;;;;;10.68;6.72;;;;;;;-0.85;100.00;100221.63;6198951;28;20054;-71
2022/11/21 01:52:27;;;;;;;8.23;4.40;;;;;;;-0.95;100.00;100215.78;6198434;28;20042;-71
2022/11/21 01:55:29;;;;;;;10.35;5.18;;;;;;;-0.98;100.00;100223.53;6198506;28;20051;-71
2022/11/21 01:58:35;;;;;;;10.88;5.88;;;;;;;-0.97;100.00;100221.81;6198443;28;20421;-71
2022/11/21 02:01:37;;;;;;;10.95;6.50;;;;;;;-0.99;100.00;100228.72;6198083;28;20046;-71
2022/11/21 02:04:42;;;;;;;16.73;7.32;;;;;;;-1.00;100.00;100230.44;6197942;28;20057;-71
2022/11/21 02:07:45;;;;;;;9.90;5.53;;;;;;;-1.05;100.00;100229.66;6198218;28;20081;-71
2022/11/21 02:10:54;;;;;;;17.17;6.75;;;;;;;-1.03;100.00;100230.50;6197976;28;20528;-71
2022/11/21 02:13:57;;;;;;;11.68;5.68;;;;;;;-1.10;100.00;100228.88;6197938;28;20046;-73
2022/11/21 02:17:02;;;;;;;12.20;5.75;;;;;;;-1.16;100.00;100231.53;6198170;28;20046;-71
2022/11/21 02:20:09;;;;;;;8.38;4.80;;;;;;;-1.16;100.00;100216.06;6197932;28;20510;-71
2022/11/21 02:23:17;;;;;;;23.08;6.70;;;;;;;-1.19;100.00;100227.25;6198142;28;20077;-71
2022/11/21 02:26:20;;;;;;;10.13;5.50;;;;;;;-1.19;100.00;100216.94;6196921;28;20176;-71
2022/11/21 02:29:22;;;;;;;17.45;7.65;;;;;;;-1.21;100.00;100215.28;6197952;28;20395;-71
2022/11/21 02:32:24;;;;;;;19.85;7.63;;;;;;;-1.26;100.00;100215.34;6197481;28;20050;-71
2022/11/21 02:35:26;;;;;;;17.15;5.97;;;;;;;-1.31;100.00;100218.00;6197569;28;20046;-71
2022/11/21 02:38:30;;;;;;;9.90;4.82;;;;;;;-1.32;100.00;100218.00;6197656;28;20050;-71
2022/11/21 02:41:36;;;;;;;15.98;6.18;;;;;;;-1.36;100.00;100224.94;6197607;28;20509;-70
2022/11/21 02:44:43;;;;;;;18.63;6.13;;;;;;;-1.38;100.00;100215.50;6197042;28;20073;-72
2022/11/21 02:47:45;;;;;;;17.50;6.22;;;;;;;-1.36;100.00;100216.34;6197955;28;20066;-71
2022/11/21 02:50:47;;;;;;;13.38;5.57;;;;;;;-1.34;100.00;100222.31;6197231;28;20050;-71
2022/11/21 02:53:49;;;;;;;10.70;6.07;;;;;;;-1.36;100.00;100221.50;6197512;28;20058;-71
2022/11/21 02:56:51;;;;;;;11.25;5.25;;;;;;;-1.41;100.00;100218.09;6197738;28;20498;-71
2022/11/21 02:59:53;;;;;;;12.75;5.57;;;;;;;-1.45;100.00;100221.59;6197500;28;20046;-71
2022/11/21 03:02:54;;;;;;;18.63;6.43;;;;;;;-1.47;100.00;100225.94;6197505;28;20050;-71
2022/11/21 03:05:56;;;;;;;14.77;6.18;;;;;;;-1.45;100.00;100237.06;6196948;28;20097;-74
2022/11/21 03:08:58;;;;;;;16.55;6.03;;;;;;;-1.44;100.00;100231.06;6197729;28;20054;-71
2022/11/21 03:12:05;;;;;;;16.20;5.78;;;;;;;-1.46;100.00;100240.50;6196978;28;20491;-71
2022/11/21 03:15:10;;;;;;;9.88;4.97;;;;;;;-1.46;100.00;100246.50;6197170;28;20047;-71
2022/11/21 03:18:11;;;;;;;9.93;5.47;;;;;;;-1.47;100.00;100247.41;6197233;28;20046;-71
2022/11/21 03:21:12;;;;;;;14.43;5.18;;;;;;;-1.46;100.00;100243.09;6197020;28;20055;-71
2022/11/21 03:24:14;;;;;;;12.27;6.78;;;;;;;-1.45;100.00;100247.38;6196690;28;20061;-71
2022/11/21 03:27:17;;;;;;;16.95;8.00;;;;;;;-1.50;100.00;100249.16;6197403;28;20494;-70
2022/11/21 03:30:19;;;;;;;10.77;4.35;;;;;;;-1.57;100.00;100253.53;6196714;28;20046;-71
2022/11/21 03:33:20;;;;;;;18.25;6.05;;;;;;;-1.52;100.00;100251.75;6197418;28;20053;-71
2022/11/21 03:36:22;;;;;;;11.50;6.10;;;;;;;-1.53;100.00;100244.91;6197302;28;20053;-71
2022/11/21 03:39:23;;;;;;;11.93;6.38;;;;;;;-1.55;100.00;100250.06;6201757;28;20495;-71
2022/11/21 03:42:26;;;;;;;17.85;7.35;;;;;;;-1.48;100.00;100252.56;6200969;28;20042;-71
2022/11/21 03:45:27;;;;;;;13.70;6.63;;;;;;;-1.46;100.00;100263.69;6200892;28;20406;-71
2022/11/21 03:48:28;;;;;;;15.95;8.35;;;;;;;-1.41;100.00;100272.22;6201535;28;20066;-71
2022/11/21 03:51:30;;;;;;;14.35;6.47;;;;;;;-1.44;100.00;100259.41;6198728;28;20051;-71
2022/11/21 03:54:32;;;;;;;16.50;6.32;;;;;;;-1.45;100.00;100268.84;6201054;28;20070;-71
2022/11/21 03:57:34;;;;;;;20.25;7.05;;;;;;;-1.41;100.00;100264.50;6201196;28;20430;-71
2022/11/21 04:00:36;;;;;;;12.80;6.53;;;;;;;-1.35;100.00;100265.28;6200985;28;20058;-71
2022/11/21 04:03:37;;;;;;;15.27;7.32;;;;;;;-1.38;100.00;100267.03;6201074;28;20050;-72
2022/11/21 04:06:39;;;;;;;25.33;8.18;;;;;;;-1.38;100.00;100267.91;6200644;28;20050;-70
2022/11/21 04:09:40;;;;;;;14.73;6.93;;;;;;;-1.36;100.00;100262.75;6200827;28;20057;-71
2022/11/21 04:12:43;;;;;;;17.42;7.70;;;;;;;-1.35;100.00;100267.88;6201187;28;20165;-70
2022/11/21 04:15:45;;;;;;;19.10;8.77;;;;;;;-1.40;100.00;100268.81;6200479;28;20054;-71
2022/11/21 04:18:46;;;;;;;25.73;7.93;;;;;;;-1.39;100.00;100270.50;6200697;28;20436;-70
2022/11/21 04:21:48;;;;;;;13.55;6.72;;;;;;;-1.46;100.00;100269.72;6200415;28;20530;-71
2022/11/21 04:24:49;;;;;;;14.20;6.57;;;;;;;-1.52;100.00;100262.06;6200424;28;20057;-71
2022/11/21 04:27:55;;;;;;;13.45;6.55;;;;;;;-1.49;100.00;100259.47;6200782;28;20054;-70
2022/11/21 04:31:02;;;;;;;16.33;7.32;;;;;;;-1.61;100.00;100257.00;6200250;28;20058;-71
2022/11/21 04:34:04;;;;;;;9.35;5.82;;;;;;;-1.60;100.00;100262.13;6200420;28;20046;-71
2022/11/21 04:37:05;;;;;;;13.75;5.20;;;;;;;-1.69;100.00;100261.41;6200278;28;20050;-71
2022/11/21 04:40:08;;;;;;;10.70;5.32;;;;;;;-1.84;100.00;100260.69;6200159;28;20058;-71
2022/11/21 04:43:10;;;;;;;16.83;6.07;;;;;;;-1.84;100.00;100260.69;6200330;28;20042;-70
2022/11/21 04:46:12;;;;;;;13.45;7.57;;;;;;;-1.79;100.00;100261.50;6199925;28;20065;-70
2022/11/21 04:49:13;;;;;;;10.43;6.07;;;;;;;-1.85;100.00;100263.31;6199793;28;20046;-70
2022/11/21 04:52:15;;;;;;;14.20;6.38;;;;;;;-1.87;100.00;100271.03;6194673;28;20514;-71
2022/11/21 04:55:16;;;;;;;20.02;4.70;;;;;;;-1.95;100.00;100266.81;6186692;28;20047;-70
2022/11/21 04:58:19;;;;;;;17.10;7.65;;;;;;;-1.93;100.00;100273.66;6185657;28;20494;-71
2022/11/21 05:01:21;;;;;;;12.77;7.03;;;;;;;-1.91;100.00;100276.22;6184900;28;20046;-70
2022/11/21 05:04:22;;;;;;;14.65;6.82;;;;;;;-1.85;100.00;100286.47;6184885;28;20065;-72
2022/11/21 05:07:23;;;;;;;17.95;7.47;;;;;;;-1.83;100.00;100289.88;6187099;28;20057;-71
2022/11/21 05:10:25;;;;;;;14.52;7.05;;;;;;;-1.88;100.00;100277.03;6185053;28;20057;-71
2022/11/21 05:13:27;;;;;;;20.00;6.57;;;;;;;-1.89;100.00;100275.34;6181835;28;20422;-71
2022/11/21 05:16:28;;;;;;;9.93;5.07;;;;;;;-1.90;100.00;100260.78;6174765;28;20430;-72
2022/11/21 05:19:29;;;;;;;20.10;6.68;;;;;;;-1.84;100.00;100271.00;6175408;28;20046;-71
2022/11/21 05:22:31;;;;;;;13.52;6.00;;;;;;;-1.85;100.00;100269.31;6174897;28;20407;-71
2022/11/21 05:25:32;;;;;;;11.93;5.85;;;;;;;-1.89;100.00;100275.34;6174928;28;20062;-71
2022/11/21 05:28:35;;;;;;;11.45;6.03;;;;;;;-1.85;100.00;100279.59;6175456;28;20058;-71
2022/11/21 05:31:36;;;;;;;13.85;6.53;;;;;;;-1.82;100.00;100273.53;6174945;28;20043;-71
2022/11/21 05:34:38;;;;;;;19.75;6.60;;;;;;;-1.86;100.00;100272.75;6174603;28;20054;-71
2022/11/21 05:37:39;;;;;;;12.93;5.32;;;;;;;-1.92;100.00;100270.22;6175093;28;20047;-71
2022/11/21 05:40:41;;;;;;;11.40;6.45;;;;;;;-2.13;100.00;100273.88;6174730;28;20046;-71
2022/11/21 05:43:46;;;;;;;10.43;5.20;;;;;;;-2.10;100.00;100272.97;6174272;28;20054;-71
2022/11/21 05:46:48;;;;;;;14.80;6.13;;;;;;;-2.18;100.00;100265.34;6174832;28;20078;-71
2022/11/21 05:49:49;;;;;;;17.63;6.60;;;;;;;-2.25;100.00;100267.97;6174216;28;20050;-71
2022/11/21 05:52:51;;;;;;;14.30;5.65;;;;;;;-2.26;100.00;100268.84;6174663;28;20507;-71
2022/11/21 05:55:52;;;;;;;12.23;5.40;;;;;;;-2.36;100.00;100271.50;6174027;28;20058;-71
2022/11/21 05:58:56;;;;;;;11.25;5.35;;;;;;;-2.35;100.00;100275.78;6180833;28;20058;-71
2022/11/21 06:05:16;;;;;;;10.98;4.32;;;;;;;-2.64;100.00;100286.28;6184378;28;20457;-71
2022/11/21 06:08:18;;;;;;;8.68;5.00;;;;;;;-2.69;100.00;100279.47;6186834;28;20069;-71
2022/11/21 06:11:19;;;;;;;7.30;5.45;;;;;;;-2.66;100.00;100276.88;6184355;28;20062;-71
2022/11/21 06:14:22;;;;;;;13.93;5.78;;;;;;;-2.68;100.00;100273.44;6186877;28;20084;-71
2022/11/21 06:17:23;;;;;;;10.93;4.72;;;;;;;-2.69;100.00;100274.31;6185728;28;20054;-71
2022/11/21 06:20:25;;;;;;;10.05;4.22;;;;;;;-2.71;100.00;100276.91;6185221;28;20146;-71
2022/11/21 06:23:26;;;;;;;10.27;5.70;;;;;;;-2.78;100.00;100271.81;6185506;28;20046;-71
2022/11/21 06:26:28;;;;;;;13.90;5.78;;;;;;;-2.76;100.00;100278.66;6193893;28;20046;-71
2022/11/21 06:29:31;;;;;;;12.02;5.07;;;;;;;-2.77;100.00;100282.09;6193955;28;20183;-71
2022/11/21 06:32:36;;;;;;;11.38;5.75;;;;;;;-2.82;100.00;100278.69;6196077;28;20050;-71
2022/11/21 06:35:39;;;;;;;8.52;4.45;;;;;;;-2.92;100.00;100285.59;6195757;28;20042;-71
2022/11/21 06:38:41;;;;;;;11.55;4.68;;;;;;;-2.97;100.00;100283.94;6194245;28;20129;-71
2022/11/21 06:41:42;;;;;;;11.75;4.90;;;;;;;-2.94;100.00;100282.19;6184500;28;20046;-71
2022/11/21 06:44:45;;;;;;;10.55;4.82;;;;;;;-2.96;100.00;100273.63;6182641;28;20042;-72
2022/11/21 06:47:47;;;;;;;8.93;4.30;;;;;;;-2.92;100.00;100261.63;6185376;28;20058;-71
2022/11/21 06:50:48;;;;;;;8.77;4.82;;;;;;;-2.97;100.00;100266.78;6185610;28;20051;-71
2022/11/21 06:53:54;;;;;;;11.30;5.43;;;;;;;-3.08;100.00;100264.28;6183091;28;20182;-71
2022/11/21 06:56:57;;;;;;;7.60;4.20;;;;;;;-3.00;100.00;100266.78;6184308;28;20046;-71
2022/11/21 07:00:00;;;;;;;8.65;4.55;;;;;;;-2.97;100.00;100277.06;6183994;28;20136;-72
2022/11/21 07:03:02;;;;;;;9.98;4.38;;;;;;;-2.94;100.00;100278.78;6183171;28;20395;-72
2022/11/21 07:06:05;;;;;;;12.65;5.45;;;;;;;-2.92;100.00;100280.47;6184460;28;20050;-71
2022/11/21 07:09:06;;;;;;;9.32;5.03;;;;;;;-2.92;100.00;100288.16;6182617;28;20046;-71
2022/11/21 07:15:25;;;;;;;11.25;5.68;;;;;;;-3.04;100.00;100295.09;6167014;28;20054;-71
2022/11/21 07:18:27;;;;;;;11.32;4.47;;;;;;;-2.99;100.00;100304.50;6202393;28;20520;-71
2022/11/21 07:21:28;;;;;;;11.23;4.97;;;;;;;-3.04;100.00;100302.81;6201910;28;20050;-71
2022/11/21 07:24:30;;;;;;;9.10;4.68;;;;;;;-3.14;100.00;100305.41;6201944;28;20042;-71
2022/11/21 07:27:31;;;;;;;8.90;4.40;;;;;;;-3.16;100.00;100301.16;6202112;28;20050;-71
2022/11/21 07:30:35;;;;;;;11.90;5.40;;;;;;;-3.13;100.00;100306.31;6201854;28;20066;-72
2022/11/21 07:33:37;;;;;;;15.25;5.30;;;;;;;-3.21;100.00;100296.03;6201987;28;20054;-71
2022/11/21 07:36:38;;;;;;;11.60;5.35;;;;;;;-3.23;100.00;100290.03;6201617;28;20046;-71
2022/11/21 07:39:39;;;;;;;9.40;5.00;;;;;;;-3.15;100.00;100283.16;6201786;28;20050;-71
2022/11/21 07:42:41;;;;;;;11.68;5.63;;;;;;;-3.04;100.00;100289.94;6201962;28;20054;-71
2022/11/21 07:45:44;;;;;;;10.68;5.15;;;;;;;-3.02;100.00;100289.09;6201430;28;20057;-72
2022/11/21 07:48:45;;;;;;;10.20;5.05;;;;;;;-3.03;100.00;100292.53;6201774;28;20054;-71
2022/11/21 07:51:46;;;;;;;10.57;4.75;;;;;;;-2.99;100.00;100299.38;6201452;28;20169;-71
2022/11/21 07:54:48;;;;;;;11.55;5.25;;;;;;;-2.93;100.00;100301.91;6201213;28;20046;-71
2022/11/21 07:57:57;;;;;;;11.93;5.28;;;;;;;-2.88;100.00;100300.16;6201600;28;20057;-71
2022/11/21 08:01:02;;;;;;;;;;;;;;;-2.83;100.00;100297.53;6201550;28;20050;-71
2022/11/21 08:04:04;;;;;;;10.90;5.57;;;;;;;-2.83;100.00;100297.53;6200987;28;20373;-72
2022/11/21 08:07:05;;;;;;;12.40;5.32;;;;;;;-2.83;100.00;100287.25;6201136;28;20148;-71
2022/11/21 08:10:07;;;;;;;13.93;6.20;;;;;;;-2.85;100.00;100294.16;6201015;28;20054;-72
2022/11/21 08:13:09;;;;;;;11.27;4.40;;;;;;;-2.86;100.00;100292.41;6201188;28;20521;-70
2022/11/21 08:16:12;;;;;;;12.18;5.47;;;;;;;-2.87;100.00;100290.72;6200951;28;20050;-72
2022/11/21 08:19:13;;;;;;;12.95;6.38;;;;;;;-2.88;100.00;100296.72;6201053;28;20162;-71
2022/11/21 08:22:15;;;;;;;13.80;6.72;;;;;;;-2.79;100.00;100296.66;6200042;28;20069;-71
2022/11/21 08:25:16;;;;;;;13.93;6.03;;;;;;;-2.75;100.00;100290.66;6200382;28;20410;-71
2022/11/21 08:28:18;;;;;;;9.88;4.40;;;;;;;-2.74;100.00;100286.34;6195686;28;20054;-71
2022/11/21 08:31:21;;;;;;;10.50;4.97;;;;;;;-2.67;100.00;100290.59;6205924;28;20054;-71
2022/11/21 08:34:22;;;;;;;11.70;7.07;;;;;;;-2.63;100.00;100293.16;6186129;28;20050;-71
2022/11/21 08:37:24;;;;;;;14.77;6.97;;;;;;;-2.58;100.00;100293.97;6184770;28;20054;-71
2022/11/21 08:40:26;;;;;;;12.55;5.88;;;;;;;-2.47;100.00;100300.75;6200048;28;20046;-72
2022/11/21 08:43:27;;;;;;;10.10;5.03;;;;;;;-2.42;100.00;100296.41;6200227;28;20043;-71
2022/11/21 08:46:32;;;;;;;11.48;5.53;;;;;;;-2.43;100.00;100294.72;6199677;28;20051;-71
2022/11/21 08:49:34;;;;;;;16.70;5.90;;;;;;;-2.35;100.00;100287.78;6200338;28;20134;-71
2022/11/21 08:52:36;;;;;;;12.07;6.13;;;;;;;-2.34;100.00;100287.75;6199995;28;20521;-73
2022/11/21 08:55:37;;;;;;;8.02;5.07;;;;;;;-2.28;100.00;100301.44;6199708;28;20053;-71
2022/11/21 08:58:39;;;;;;;14.13;6.25;;;;;;;-2.23;100.00;100295.38;6200065;28;20446;-71
2022/11/21 09:01:42;;;;;;;16.45;6.10;;;;;;;-2.24;100.00;100296.25;6199407;28;20050;-71
2022/11/21 09:04:43;;;;;;;12.55;6.10;;;;;;;-2.11;100.00;100295.28;6199485;28;20058;-71
2022/11/21 09:07:44;;;;;;;16.08;7.47;;;;;;;-2.05;100.00;100295.22;6199656;28;20509;-71
2022/11/21 09:10:46;;;;;;;16.95;6.45;;;;;;;-1.97;100.00;100289.16;6199624;28;20434;-72
2022/11/21 09:18:01;;;;;;;15.43;6.05;;;;;;;-2.03;100.00;100294.38;6199014;28;20490;-73
2022/11/21 09:20:40;;;;;;;16.13;6.63;;;;;;;-1.87;100.00;100283.03;6173686;28;20046;-72
2022/11/21 09:23:41;;;;;;;16.15;6.65;;;;;;;-1.73;100.00;100282.91;6199054;28;20428;-73
2022/11/21 09:26:43;;;;;;;19.77;7.20;;;;;;;-1.73;100.00;100278.59;6199198;28;20061;-72
2022/11/21 09:29:44;;;;;;;12.60;5.90;;;;;;;-1.75;100.00;100282.06;6198991;28;20108;-72
2022/11/21 09:32:47;;;;;;;18.35;7.40;;;;;;;-1.74;100.00;100278.63;6199145;28;20534;-72
2022/11/21 09:35:48;;;;;;;12.30;6.18;;;;;;;-1.66;100.00;100271.69;6197711;28;20501;-71
2022/11/21 09:38:51;;;;;;;14.55;6.45;;;;;;;-1.61;100.00;100264.75;6199026;28;20429;-71
2022/11/21 09:42:06;;;;;;;13.48;6.32;;;;;;;-1.53;100.00;100275.81;6198755;28;20046;-71
2022/11/21 09:45:13;;;;;;;15.85;6.20;;;;;;;-1.46;100.00;100279.16;6198399;28;20414;-74
2022/11/21 09:48:21;;;;;;;10.77;6.30;;;;;;;-1.44;100.00;100280.88;6199057;28;20077;-72
2022/11/21 09:51:24;;;;;;;14.37;6.83;;;;;;;-1.38;100.00;100288.50;6198486;28;20491;-72
2022/11/21 09:54:31;;;;;;;21.92;7.13;;;;;;;-1.30;100.00;100291.00;6198399;28;20056;-72
2022/11/21 09:57:34;;;;;;;15.23;6.75;;;;;;;-1.20;100.00;100278.84;6198588;28;20057;-72
2022/11/21 10:00:36;;;;;;;12.13;5.60;;;;;;;-1.14;100.00;100278.75;6198255;28;20094;-72
2022/11/21 10:03:41;;;;;;;14.93;5.93;;;;;;;-1.08;100.00;100278.69;6198493;28;20046;-71
2022/11/21 10:06:57;;;;;;;13.82;6.57;;;;;;;-1.07;100.00;100268.34;6198474;28;20054;-71
2022/11/21 10:10:23;;;;;;;14.48;7.72;;;;;;;-0.99;100.00;100272.56;6197968;28;20050;-71
2022/11/21 10:13:46;;;;;;;13.43;6.18;;;;;;;-0.89;100.00;100276.72;6195126;28;20045;-71
2022/11/21 10:16:55;;;;;;;14.63;6.95;;;;;;;-0.80;100.00;100276.59;6197919;28;20540;-72
2022/11/21 10:20:12;;;;;;;;;;;;;;;-0.70;100.00;100272.13;6198612;28;20050;-71
2022/11/21 10:23:51;;;;;;;14.80;6.65;;;;;;;-0.61;100.00;100262.53;6197883;28;19937;-71
2022/11/21 10:26:56;;;;;;;12.95;6.40;;;;;;;-0.50;100.00;100259.75;6197750;28;20494;-72
2022/11/21 10:30:03;;;;;;;14.98;7.53;;;;;;;-0.46;100.00;100263.16;6197740;28;20050;-72
2022/11/21 10:33:11;;;;;;;16.40;7.93;;;;;;;-0.42;100.00;100257.06;6197718;28;20513;-73
2022/11/21 10:36:23;;;;;;;13.88;7.63;;;;;;;-0.35;100.00;100250.94;6197492;28;20050;-72
2022/11/21 10:39:33;;;;;;;14.57;8.02;;;;;;;-0.20;100.00;100257.56;6197691;28;20050;-72
2022/11/21 10:42:38;;;;;;;13.40;7.80;;;;;;;-0.12;100.00;100246.22;6197327;28;20399;-71
2022/11/21 10:45:39;;;;;;;12.48;6.47;;;;;;;-0.01;100.00;100221.03;6195177;28;20049;-71
2022/11/21 10:48:40;;;;;;;13.07;6.55;;;;;;;0.12;100.00;100218.25;6197865;28;20054;-72
2022/11/21 10:51:49;;;;;;;14.63;7.63;;;;;;;0.28;100.00;100214.50;6178197;28;20053;-72
2022/11/21 10:55:09;;;;;;;14.63;7.72;;;;;;;0.45;100.00;100208.97;6197182;28;20510;-72
2022/11/21 10:58:17;;;;;;;19.58;8.13;;;;;;;0.58;100.00;100215.56;6197537;28;20050;-72
2022/11/21 11:01:25;;;;;;;17.90;7.97;;;;;;;0.74;100.00;100221.28;6197071;28;20057;-71
2022/11/21 11:04:28;;;;;;;13.35;6.47;;;;;;;0.92;100.00;100217.44;6197122;28;20046;-71
2022/11/21 11:07:31;;;;;;;17.25;7.97;;;;;;;1.06;100.00;100212.81;6197516;28;20051;-72
2022/11/21 11:10:33;;;;;;;16.45;7.13;;;;;;;1.16;100.00;100201.34;6197037;28;20059;-72
2022/11/21 11:13:58;;;;;;;17.30;6.95;;;;;;;1.30;100.00;100197.59;6197302;28;20414;-72
2022/11/21 11:17:00;;;;;;;18.63;7.88;;;;;;;1.46;100.00;100191.16;6197365;28;20054;-72
2022/11/21 11:20:05;;;;;;;15.90;8.18;;;;;;;1.55;100.00;100185.75;6196983;28;20050;-72
2022/11/21 11:23:24;;;;;;;20.23;7.70;;;;;;;1.51;100.00;100178.94;6187440;28;20054;-72
2022/11/21 11:26:27;;;;;;;;;;;;;;;1.49;100.00;100173.78;6185572;28;20051;-72
2022/11/21 11:29:30;;;;;;;12.63;6.30;;;;;;;1.45;100.00;100154.06;6195530;28;19921;-72
2022/11/21 11:32:32;;;;;;;12.40;6.30;;;;;;;1.32;100.00;100152.69;6196984;28;20053;-72
2022/11/21 11:35:35;;;;;;;14.57;6.60;;;;;;;1.29;100.00;100151.88;6196641;28;20046;-72
2022/11/21 11:38:40;;;;;;;19.20;7.38;;;;;;;1.25;100.00;100140.75;6197496;28;20685;-72
2022/11/21 11:49:19;;;;;;;11.52;6.25;;;;;;;2.00;100.00;100124.09;6197112;28;20050;-72
2022/11/21 11:52:21;;;;;;;;;;;;;;;2.15;100.00;100125.38;6197206;28;20422;-72
2022/11/21 11:55:31;;;;;;;10.95;6.38;;;;;;;2.29;100.00;100114.63;6196635;28;19921;-72
2022/11/21 11:58:40;;;;;;;14.50;7.00;;;;;;;2.29;100.00;100110.28;6199450;28;20056;-72
2022/11/21 12:01:46;;;;;;;12.35;6.05;;;;;;;2.27;100.00;100109.47;6201048;28;20453;-72
2022/11/21 12:04:54;;;;;;;11.65;6.03;;;;;;;2.39;100.00;100118.63;6200778;28;20403;-72
2022/11/21 12:08:07;;;;;;;10.38;5.70;;;;;;;2.45;100.00;100100.31;6201361;28;20054;-73
2022/11/21 12:18:20;;;;;;;11.68;5.40;;;;;;;2.44;100.00;100077.00;6200972;28;20050;-73
2022/11/21 12:21:22;;;;;;;14.20;5.88;;;;;;;2.36;100.00;100081.56;6200768;28;20414;-71
2022/11/21 12:24:23;;;;;;;16.38;5.82;;;;;;;2.18;100.00;100082.97;6200731;28;20042;-72
2022/11/21 12:27:31;;;;;;;12.23;5.75;;;;;;;2.07;100.00;100079.84;6201241;28;20057;-72
2022/11/21 12:31:00;;;;;;;15.38;5.88;;;;;;;1.98;100.00;100081.81;6200751;28;20046;-71
2022/11/21 12:34:16;;;;;;;8.05;4.38;;;;;;;1.99;100.00;100077.47;6200215;28;20050;-73
2022/11/21 12:37:27;;;;;;;11.18;4.85;;;;;;;1.95;100.00;100063.78;6200429;28;20557;-70
2022/11/21 12:40:42;;;;;;;13.43;5.13;;;;;;;1.85;100.00;100059.72;6199827;28;20058;-71
2022/11/21 12:43:53;;;;;;;10.77;5.25;;;;;;;1.80;100.00;100061.59;6200325;28;20057;-72
2022/11/21 12:47:06;;;;;;;17.77;7.03;;;;;;;1.86;100.00;100053.66;6200198;28;20058;-72
2022/11/21 12:57:10;;;;;;;11.10;4.60;;;;;;;1.85;100.00;100039.00;6189402;28;20509;-73
2022/11/21 13:00:20;;;;;;;10.77;4.78;;;;;;;1.75;100.00;100042.75;6185709;28;20130;-73
2022/11/21 13:03:42;;;;;;;11.27;4.13;;;;;;;1.78;100.00;100046.13;6185350;28;20553;-73
2022/11/21 13:06:47;;;;;;;12.40;4.88;;;;;;;1.76;100.00;100045.28;6189420;28;20362;-73
2022/11/21 13:09:50;;;;;;;10.93;4.80;;;;;;;1.65;100.00;100034.41;6185950;28;20073;-72
2022/11/21 13:13:00;;;;;;;13.20;5.70;;;;;;;1.66;100.00;100032.66;6185365;28;20073;-74
2022/11/21 13:16:10;;;;;;;7.15;3.85;;;;;;;1.63;100.00;100025.81;6177444;28;20050;-73
2022/11/21 13:19:20;;;;;;;8.02;3.95;;;;;;;1.68;100.00;100026.56;6175892;28;20047;-73
2022/11/21 13:22:56;;;;;;;6.88;3.95;;;;;;;1.68;100.00;100020.50;6181749;28;20406;-73
2022/11/21 13:25:58;;;;;;;7.93;3.40;;;;;;;1.64;100.00;100017.19;6174487;28;20434;-73
2022/11/21 13:29:08;;;;;;;13.52;3.72;;;;;;;1.58;100.00;100006.13;6175404;28;20055;-73
2022/11/21 13:32:38;;;;;;;5.60;2.85;;;;;;;1.59;100.00;100006.09;6182792;28;20042;-72
2022/11/21 13:36:08;;;;;;;6.28;3.30;;;;;;;1.57;100.00;99996.66;6198848;28;20097;-72
2022/11/21 13:39:35;;;;;;;8.50;3.45;;;;;;;1.51;100.00;100000.28;6199094;28;20050;-73
2022/11/21 13:43:15;;;;;;;8.10;2.42;;;;;;;1.46;100.00;99997.00;6198244;28;20046;-72
2022/11/21 13:46:58;;;;;;;8.95;3.22;;;;;;;1.43;100.00;99997.91;6198576;28;20085;-72
2022/11/21 13:50:08;;;;;;;6.13;3.17;;;;;;;1.45;100.00;99997.84;6198531;28;20061;-72
2022/11/21 13:53:25;;;;;;;9.88;3.80;;;;;;;1.45;100.00;99990.97;6198604;28;20494;-73
2022/11/21 13:56:36;;;;;;;7.47;3.53;;;;;;;1.42;100.00;99987.59;6203995;28;20049;-72
2022/11/21 13:59:50;;;;;;;8.48;3.92;;;;;;;1.39;100.00;99979.91;6200103;28;20054;-72
2022/11/21 14:03:23;;;;;;;7.80;3.83;;;;;;;1.35;100.00;99973.13;6192142;28;20513;-71
2022/11/21 14:06:36;;;;;;;9.90;4.70;;;;;;;1.30;100.00;99967.22;6197871;28;20046;-72
2022/11/21 14:09:46;;;;;;;8.55;4.68;;;;;;;1.26;100.00;99969.06;6198320;28;20128;-72
2022/11/21 14:12:50;;;;;;;9.00;4.13;;;;;;;1.25;100.00;99964.78;6198169;28;20418;-72
2022/11/21 14:16:02;;;;;;;8.27;3.78;;;;;;;1.22;100.00;99960.53;6197747;28;20057;-72
2022/11/21 14:19:05;;;;;;;15.20;4.45;;;;;;;1.18;100.00;99961.53;6198193;28;20061;-73
2022/11/21 14:22:15;;;;;;;12.95;5.32;;;;;;;1.17;100.00;99962.38;6196993;28;20050;-72
2022/11/21 14:25:19;;;;;;;11.73;4.88;;;;;;;1.19;100.00;99968.38;6198659;28;20065;-72
2022/11/21 14:28:26;;;;;;;9.10;4.10;;;;;;;1.17;100.00;99958.94;6197184;28;20054;-71
2022/11/21 14:31:28;;;;;;;8.45;4.03;;;;;;;1.21;100.00;99963.16;6197757;28;20050;-72
2022/11/21 14:34:32;;;;;;;13.73;5.25;;;;;;;1.21;100.00;99961.41;6197495;28;20050;-71
2022/11/21 14:37:33;;;;;;;8.98;4.88;;;;;;;1.26;100.00;99956.13;6203142;28;20051;-71
2022/11/21 14:40:35;;;;;;;11.25;6.10;;;;;;;1.25;100.00;99962.19;6197391;28;20181;-72